Time;durP1;ratioP1;P1;durP2;ratioP2;P2;SDS_P1;SDS_P2;PMS_P1;PMS_P2;Temp;Humidity;BMP_temperature;BMP_pressure;BME280_temperature;BME280_humidity;BME280_pressure;Samples;Min_cycle;Max_cycle;Signal;HPM_P1;HPM_P2
2024/01/23 12:21:44;;;;;;;;;;;9.80;99.90;;;;;;6326255;27;20393;-87
2024/01/23 12:24:47;;;;;;;22.15;3.03;;;;;;;;;;6348341;28;20006;-88
2024/01/23 12:27:49;;;;;;;17.17;2.97;;;;;;;;;;6323329;28;20065;-86
2024/01/23 12:30:52;;;;;;;10.82;2.40;;;9.70;99.90;;;;;;6344628;28;20058;-88
2024/01/23 12:33:54;;;;;;;16.45;2.70;;;;;;;;;;6298233;28;20063;-90
2024/01/23 12:36:56;;;;;;;17.00;2.63;;;;;;;;;;6345229;28;20093;-88
2024/01/23 12:39:58;;;;;;;12.27;1.98;;;10.00;99.90;;;;;;6320654;28;20059;-90
2024/01/23 12:43:00;;;;;;;13.70;2.63;;;10.00;99.90;;;;;;6336886;28;20056;-89
2024/01/23 12:46:01;;;;;;;10.32;1.90;;;10.00;99.90;;;;;;6320216;28;20399;-89
2024/01/23 12:49:03;;;;;;;10.20;1.67;;;10.10;99.90;;;;;;6344292;28;20403;-89
2024/01/23 12:52:05;;;;;;;9.52;1.48;;;10.30;99.90;;;;;;6319841;28;20056;-90
2024/01/23 12:55:08;;;;;;;9.27;1.70;;;;;;;;;;6345485;28;20051;-88
2024/01/23 12:58:10;;;;;;;12.10;2.05;;;10.10;99.90;;;;;;6323483;28;20078;-91
2024/01/23 13:01:12;;;;;;;7.65;1.50;;;10.10;99.90;;;;;;6344998;28;20052;-89
2024/01/23 13:04:13;;;;;;;6.00;1.38;;;10.20;99.90;;;;;;6321883;28;20152;-92
2024/01/23 13:07:15;;;;;;;6.50;1.35;;;10.20;99.90;;;;;;6344803;28;20052;-89
2024/01/23 13:10:17;;;;;;;8.75;1.27;;;10.20;99.90;;;;;;6318891;28;20056;-93
2024/01/23 13:13:19;;;;;;;7.18;1.40;;;10.20;99.90;;;;;;6333675;28;20055;-92
2024/01/23 13:16:22;;;;;;;7.75;1.55;;;10.30;99.90;;;;;;6343463;28;20051;-91
2024/01/23 13:19:24;;;;;;;10.32;1.40;;;10.40;99.90;;;;;;6324625;28;20093;-90
2024/01/23 13:22:26;;;;;;;8.30;1.73;;;10.40;99.90;;;;;;6347108;28;20058;-91
2024/01/23 13:25:28;;;;;;;5.78;1.20;;;10.40;99.90;;;;;;6316679;28;20146;-89
2024/01/23 13:28:29;;;;;;;8.50;1.42;;;10.50;99.90;;;;;;6329847;28;20316;-90
2024/01/23 13:31:34;;;;;;;6.88;1.33;;;10.50;99.90;;;;;;6330806;28;20047;-86
2024/01/23 13:34:37;;;;;;;5.10;1.30;;;10.50;99.90;;;;;;6297784;28;20098;-88
2024/01/23 13:37:39;;;;;;;6.65;1.55;;;10.60;99.90;;;;;;6321370;28;20177;-85
2024/01/23 13:40:40;;;;;;;8.25;1.60;;;10.70;99.90;;;;;;6297022;28;20409;-83
2024/01/23 13:43:42;;;;;;;7.88;1.60;;;10.70;99.90;;;;;;6307844;28;20544;-88
2024/01/23 13:46:44;;;;;;;6.38;1.50;;;10.70;99.90;;;;;;6322146;28;20055;-85
2024/01/23 13:49:50;;;;;;;6.28;1.52;;;10.70;99.90;;;;;;6296440;28;20055;-85
2024/01/23 13:52:52;;;;;;;8.80;1.60;;;10.80;99.90;;;;;;6271239;28;20511;-86
2024/01/23 13:55:53;;;;;;;6.72;1.40;;;10.80;99.90;;;;;;6318550;28;20048;-80
2024/01/23 13:58:55;;;;;;;6.20;1.50;;;10.80;99.90;;;;;;6306463;28;20063;-87
2024/01/23 14:01:57;;;;;;;6.43;1.10;;;10.90;99.90;;;;;;6299043;28;20052;-85
2024/01/23 14:04:59;;;;;;;7.07;1.52;;;10.90;99.90;;;;;;6322386;28;20060;-86
2024/01/23 14:08:01;;;;;;;7.30;1.42;;;10.90;99.90;;;;;;6296521;28;20048;-84
2024/01/23 14:11:02;;;;;;;7.55;1.58;;;10.90;99.90;;;;;;6297022;28;20053;-92
2024/01/23 14:14:04;;;;;;;5.85;1.40;;;10.90;99.90;;;;;;6299869;28;20461;-85
2024/01/23 14:17:06;;;;;;;6.68;1.60;;;10.90;99.90;;;;;;6296522;28;20055;-88
2024/01/23 14:20:12;;;;;;;9.60;1.60;;;11.00;99.90;;;;;;6319175;28;20052;-89
2024/01/23 14:23:14;;;;;;;9.48;1.63;;;11.00;99.90;;;;;;6296464;28;20503;-91
2024/01/23 14:26:16;;;;;;;7.55;1.20;;;11.00;99.90;;;;;;6322663;28;20052;-92
2024/01/23 14:29:19;;;;;;;7.22;1.48;;;12.40;99.90;;;;;;6298934;28;20059;-89
2024/01/23 14:32:21;;;;;;;8.05;1.40;;;;;;;;;;6300790;28;20091;-91
2024/01/23 14:35:27;;;;;;;6.32;1.40;;;11.20;99.90;;;;;;6291675;28;20105;-92
2024/01/23 14:38:29;;;;;;;7.85;1.48;;;11.20;99.90;;;;;;6298544;28;20486;-90
2024/01/23 14:41:31;;;;;;;6.05;1.30;;;11.20;99.90;;;;;;6304563;28;20530;-90
2024/01/23 14:44:34;;;;;;;4.85;1.48;;;11.20;99.90;;;;;;6318604;28;20052;-86
2024/01/23 14:47:35;;;;;;;6.78;1.05;;;11.20;99.90;;;;;;6296410;28;20048;-91
2024/01/23 14:50:37;;;;;;;8.65;1.73;;;11.30;99.90;;;;;;6308669;28;20046;-88
2024/01/23 14:53:40;;;;;;;7.03;1.17;;;11.20;99.90;;;;;;6299786;28;20508;-91
2024/01/23 14:56:43;;;;;;;6.70;1.10;;;11.30;99.90;;;;;;6305198;28;20055;-87
2024/01/23 14:59:45;;;;;;;5.78;1.00;;;11.30;99.90;;;;;;6308294;28;20545;-87
2024/01/23 15:02:47;;;;;;;5.82;1.02;;;11.30;99.90;;;;;;6309493;28;20072;-86
2024/01/23 15:05:48;;;;;;;4.15;1.08;;;11.40;99.90;;;;;;6327694;28;20075;-93
2024/01/23 15:08:51;;;;;;;5.50;1.17;;;11.40;99.90;;;;;;6303257;28;20053;-88
2024/01/23 15:11:52;;;;;;;3.85;1.27;;;11.40;99.90;;;;;;6298944;28;20139;-88
2024/01/23 15:14:54;;;;;;;3.92;0.93;;;11.50;99.90;;;;;;6323950;28;20052;-86
2024/01/23 15:17:56;;;;;;;5.30;0.93;;;11.50;99.90;;;;;;6300259;28;20430;-81
2024/01/23 15:21:01;;;;;;;5.72;1.27;;;11.60;99.90;;;;;;6318558;28;20404;-86
2024/01/23 15:24:03;;;;;;;3.55;0.80;;;11.60;99.90;;;;;;6293624;28;20080;-84
2024/01/23 15:27:04;;;;;;;3.67;0.95;;;11.60;99.90;;;;;;6318997;28;20063;-86
2024/01/23 15:30:06;;;;;;;4.90;1.05;;;11.60;99.90;;;;;;6290518;28;20052;-85
2024/01/23 15:33:10;;;;;;;4.00;1.17;;;11.60;99.90;;;;;;6316621;28;20052;-83
2024/01/23 15:36:13;;;;;;;3.65;1.02;;;11.60;99.90;;;;;;6293422;28;20051;-83
2024/01/23 15:39:16;;;;;;;3.95;1.08;;;11.90;99.90;;;;;;6319076;28;20058;-82
2024/01/23 15:42:19;;;;;;;3.78;1.08;;;11.60;99.90;;;;;;6292581;28;20177;-80
2024/01/23 15:45:21;;;;;;;5.60;1.33;;;11.60;99.90;;;;;;6318563;28;20058;-85
2024/01/23 15:48:24;;;;;;;3.58;1.10;;;11.60;99.90;;;;;;6288932;28;20067;-83
2024/01/23 15:51:25;;;;;;;3.58;1.30;;;11.70;99.90;;;;;;6323952;28;20074;-89
2024/01/23 15:54:27;;;;;;;5.30;1.23;;;11.80;99.90;;;;;;6302025;28;20057;-83
2024/01/23 15:57:30;;;;;;;4.30;1.15;;;11.70;99.90;;;;;;6318677;28;20062;-89
2024/01/23 16:00:32;;;;;;;4.45;1.23;;;11.70;99.90;;;;;;6297974;28;20057;-88
2024/01/23 16:03:34;;;;;;;3.25;1.10;;;11.80;99.90;;;;;;6297173;28;20087;-88
2024/01/23 16:06:36;;;;;;;3.40;1.02;;;11.80;99.90;;;;;;6323719;28;20052;-88
2024/01/23 16:09:37;;;;;;;2.88;1.08;;;11.80;99.90;;;;;;6298764;28;20060;-86
2024/01/23 16:12:42;;;;;;;3.58;1.10;;;11.90;99.90;;;;;;6321423;28;20423;-91
2024/01/23 16:15:45;;;;;;;5.63;1.10;;;11.90;99.90;;;;;;6299585;28;20049;-89
2024/01/23 16:18:47;;;;;;;2.85;0.90;;;11.90;99.90;;;;;;6325959;28;20055;-90
2024/01/23 16:21:49;;;;;;;3.10;0.70;;;11.90;99.90;;;;;;6302484;28;20048;-92
2024/01/23 16:24:52;;;;;;;2.80;0.70;;;12.00;99.90;;;;;;6325279;28;20044;-90
2024/01/23 16:27:54;;;;;;;2.75;0.82;;;12.00;99.90;;;;;;6304265;28;20040;-87
2024/01/23 16:30:56;;;;;;;3.70;0.90;;;12.10;99.90;;;;;;6328300;28;20059;-89
2024/01/23 16:33:57;;;;;;;2.58;0.60;;;12.20;99.90;;;;;;6296386;28;20048;-85
2024/01/23 16:37:00;;;;;;;2.00;0.75;;;12.30;99.90;;;;;;6318860;28;20106;-94
2024/01/23 16:40:01;;;;;;;1.85;0.70;;;12.30;99.90;;;;;;6320128;28;20052;-87
2024/01/23 16:43:03;;;;;;;2.58;0.70;;;12.20;99.90;;;;;;6296827;28;20403;-86
2024/01/23 16:46:05;;;;;;;3.20;1.00;;;12.40;99.90;;;;;;6319993;28;20434;-86
2024/01/23 16:49:07;;;;;;;1.83;0.50;;;12.40;99.90;;;;;;6319928;28;20052;-88
2024/01/23 16:52:09;;;;;;;2.80;0.70;;;12.50;99.90;;;;;;6295315;28;20498;-85
2024/01/23 16:55:10;;;;;;;4.28;0.70;;;12.60;99.90;;;;;;6327900;28;20423;-84
2024/01/23 16:58:12;;;;;;;3.38;0.70;;;12.70;99.90;;;;;;6307510;28;20084;-86
2024/01/23 17:01:14;;;;;;;2.42;0.60;;;12.70;99.90;;;;;;6332996;28;20052;-90
2024/01/23 17:04:16;;;;;;;2.38;0.70;;;12.80;99.90;;;;;;6332278;28;20068;-90
2024/01/23 17:07:19;;;;;;;2.42;0.75;;;12.70;99.90;;;;;;6327531;28;20047;-88
2024/01/23 17:10:21;;;;;;;2.58;0.70;;;12.70;99.90;;;;;;6324231;28;20052;-89
2024/01/23 17:13:22;;;;;;;3.55;0.70;;;12.80;99.90;;;;;;6340026;28;20056;-86
2024/01/23 17:16:24;;;;;;;1.88;0.80;;;12.80;99.90;;;;;;6340191;28;20221;-87
2024/01/23 17:19:26;;;;;;;4.90;1.08;;;12.80;99.90;;;;;;6315900;28;20075;-87
2024/01/23 17:22:29;;;;;;;3.90;0.73;;;12.80;99.90;;;;;;6348485;28;20052;-91
2024/01/23 17:25:31;;;;;;;3.75;0.80;;;12.80;99.90;;;;;;6318127;28;20485;-87
2024/01/23 17:28:33;;;;;;;3.65;0.80;;;12.90;99.90;;;;;;6319595;28;20048;-93
2024/01/23 17:31:34;;;;;;;5.28;1.00;;;12.90;99.90;;;;;;6350700;28;20054;-91
2024/01/23 17:34:36;;;;;;;4.35;0.88;;;12.80;99.90;;;;;;6323157;28;20063;-92
2024/01/23 17:37:43;;;;;;;4.93;1.17;;;12.90;99.90;;;;;;6297285;28;20052;-89
2024/01/23 17:40:45;;;;;;;2.70;0.70;;;12.90;99.90;;;;;;6338584;28;20052;-91
2024/01/23 17:43:47;;;;;;;3.25;0.70;;;12.90;99.90;;;;;;6336508;28;20056;-87
2024/01/23 17:46:49;;;;;;;2.63;1.02;;;12.90;99.90;;;;;;6350362;28;20067;-89
2024/01/23 17:49:51;;;;;;;4.15;0.80;;;13.00;99.90;;;;;;6327488;28;20108;-90
2024/01/23 17:52:53;;;;;;;3.00;0.90;;;12.90;99.90;;;;;;6320581;28;20129;-89
2024/01/23 17:55:55;;;;;;;3.58;1.10;;;12.90;99.90;;;;;;6346172;28;20036;-93
2024/01/23 17:58:57;;;;;;;3.97;0.88;;;12.90;99.90;;;;;;6324342;28;20063;-90
2024/01/23 18:01:59;;;;;;;3.13;0.70;;;12.90;99.90;;;;;;6348749;28;20044;-90
2024/01/23 18:05:01;;;;;;;3.13;0.80;;;12.90;99.90;;;;;;6324788;28;20056;-93
2024/01/23 18:08:03;;;;;;;3.92;0.90;;;12.90;99.90;;;;;;6311398;28;20059;-94
2024/01/23 18:11:05;;;;;;;3.97;0.98;;;12.80;99.90;;;;;;6336101;28;20044;-92
2024/01/23 18:14:06;;;;;;;3.13;0.80;;;12.90;99.90;;;;;;6314682;28;20052;-89
2024/01/23 18:17:08;;;;;;;3.08;0.90;;;12.90;99.90;;;;;;6300476;28;20067;-87
2024/01/23 18:20:10;;;;;;;3.38;1.10;;;12.80;99.90;;;;;;6315960;28;20056;-90
2024/01/23 18:23:18;;;;;;;2.33;0.75;;;12.90;99.90;;;;;;6295922;28;20116;-92
2024/01/23 18:26:22;;;;;;;2.17;0.90;;;12.90;99.90;;;;;;6312708;28;20052;-93
2024/01/23 18:29:24;;;;;;;3.40;0.95;;;12.90;99.90;;;;;;6308163;28;20052;-93
2024/01/23 18:32:26;;;;;;;2.10;0.75;;;13.00;99.90;;;;;;6338895;28;20291;-92
2024/01/23 18:35:28;;;;;;;4.22;0.98;;;12.90;99.90;;;;;;6306915;28;20109;-90
2024/01/23 18:38:31;;;;;;;2.55;0.90;;;12.90;99.90;;;;;;6330077;28;20060;-86
2024/01/23 18:41:33;;;;;;;4.18;0.85;;;12.90;99.90;;;;;;6300770;28;20044;-82
2024/01/23 18:44:34;;;;;;;3.67;0.85;;;12.90;99.90;;;;;;6309869;28;20136;-86
2024/01/23 18:47:36;;;;;;;1.73;0.80;;;12.90;99.90;;;;;;6309177;28;20048;-86
2024/01/23 18:50:38;;;;;;;2.28;0.95;;;13.00;99.90;;;;;;6296790;28;20096;-88
2024/01/23 18:53:39;;;;;;;3.60;0.90;;;12.90;99.90;;;;;;6307781;28;20052;-90
2024/01/23 18:56:41;;;;;;;2.08;0.70;;;12.90;99.90;;;;;;6321319;28;20056;-91
2024/01/23 18:59:43;;;;;;;3.25;1.00;;;12.90;99.90;;;;;;6322725;28;20090;-87
2024/01/23 19:02:45;;;;;;;3.55;1.10;;;13.00;99.90;;;;;;6302288;28;20606;-92
2024/01/23 19:05:47;;;;;;;4.18;0.90;;;12.90;99.90;;;;;;6304421;28;20072;-90
2024/01/23 19:08:51;;;;;;;3.65;0.90;;;12.90;99.90;;;;;;6296168;28;20494;-89
2024/01/23 19:11:55;;;;;;;2.25;0.80;;;12.90;99.90;;;;;;6321358;28;20066;-85
2024/01/23 19:15:00;;;;;;;2.53;0.88;;;13.00;99.90;;;;;;6293391;28;20068;-90
2024/01/23 19:18:02;;;;;;;2.60;0.90;;;12.90;99.90;;;;;;6320814;28;20056;-89
2024/01/23 19:21:04;;;;;;;4.32;1.10;;;12.90;99.90;;;;;;6294365;28;20064;-84
2024/01/23 19:24:06;;;;;;;2.78;1.08;;;12.90;99.90;;;;;;6303445;28;20060;-89
2024/01/23 19:27:08;;;;;;;4.63;1.13;;;12.90;99.90;;;;;;6294741;28;20052;-87
2024/01/23 19:30:10;;;;;;;3.33;0.93;;;12.90;99.90;;;;;;6301383;28;20056;-88
2024/01/23 19:33:12;;;;;;;4.70;0.82;;;13.00;99.90;;;;;;6320909;28;20478;-87
2024/01/23 19:36:14;;;;;;;3.40;0.80;;;13.00;99.90;;;;;;6296369;28;20139;-88
2024/01/23 19:39:15;;;;;;;2.40;0.80;;;13.00;99.90;;;;;;6300531;28;20052;-86
2024/01/23 19:42:17;;;;;;;3.05;0.90;;;13.00;99.90;;;;;;6295407;28;20549;-88
2024/01/23 19:45:19;;;;;;;5.20;1.27;;;13.00;99.90;;;;;;6300112;28;20187;-91
2024/01/23 19:48:21;;;;;;;4.10;0.93;;;13.00;99.90;;;;;;6297227;28;20052;-85
2024/01/23 19:51:22;;;;;;;3.20;1.17;;;13.00;99.90;;;;;;6303351;28;20060;-89
2024/01/23 19:54:24;;;;;;;1.92;0.90;;;13.00;99.90;;;;;;6295690;28;20045;-89
2024/01/23 19:57:29;;;;;;;4.15;1.00;;;13.00;99.90;;;;;;6292784;28;20056;-86
2024/01/23 20:00:31;;;;;;;4.15;1.25;;;13.00;99.90;;;;;;6267846;28;20183;-85
2024/01/23 20:03:33;;;;;;;3.47;0.85;;;12.90;99.90;;;;;;6291698;28;20055;-86
2024/01/23 20:06:34;;;;;;;4.85;0.85;;;12.90;99.90;;;;;;6311073;28;20303;-85
2024/01/23 20:09:39;;;;;;;2.50;0.70;;;12.90;99.90;;;;;;6305037;28;20075;-85
2024/01/23 20:12:41;;;;;;;2.13;0.73;;;12.90;99.90;;;;;;6300531;28;20185;-87
2024/01/23 20:15:43;;;;;;;3.47;0.80;;;13.00;99.90;;;;;;6298233;28;20135;-86
2024/01/23 20:18:45;;;;;;;3.42;0.80;;;13.00;99.90;;;;;;6295376;28;20051;-89
2024/01/23 20:21:47;;;;;;;2.78;1.00;;;13.00;99.90;;;;;;6299487;28;20062;-86
2024/01/23 20:24:49;;;;;;;2.75;0.75;;;13.00;99.90;;;;;;6303150;28;20500;-88
2024/01/23 20:27:51;;;;;;;3.28;0.85;;;13.00;99.90;;;;;;6302924;28;20044;-89
2024/01/23 20:30:53;;;;;;;2.25;0.70;;;12.90;99.90;;;;;;6320061;28;20082;-90
2024/01/23 20:33:55;;;;;;;1.40;0.60;;;13.00;99.90;;;;;;6304710;28;20067;-89
2024/01/23 20:36:57;;;;;;;2.42;0.68;;;13.00;99.90;;;;;;6312042;28;20145;-93
2024/01/23 20:39:59;;;;;;;2.70;0.90;;;13.00;99.90;;;;;;6299338;28;20590;-91
2024/01/23 20:43:04;;;;;;;4.05;0.77;;;13.10;99.90;;;;;;6309836;28;20060;-89
2024/01/23 20:46:06;;;;;;;1.92;0.65;;;13.00;99.90;;;;;;6306426;28;20056;-91
2024/01/23 20:49:09;;;;;;;2.95;0.60;;;13.10;99.90;;;;;;6333389;28;20075;-90
2024/01/23 20:52:11;;;;;;;2.38;0.70;;;13.10;99.90;;;;;;6309961;28;20075;-93
2024/01/23 20:55:13;;;;;;;2.42;0.60;;;13.20;99.90;;;;;;6321280;28;20056;-90
2024/01/23 20:58:15;;;;;;;2.83;0.80;;;13.10;99.90;;;;;;6333521;28;20139;-91
2024/01/23 21:01:17;;;;;;;1.92;0.70;;;13.10;99.90;;;;;;6323664;28;20056;-90
2024/01/23 21:04:19;;;;;;;1.90;0.70;;;13.10;99.90;;;;;;6304063;28;20072;-90
2024/01/23 21:07:22;;;;;;;2.33;0.60;;;13.10;99.90;;;;;;6309288;28;20060;-91
2024/01/23 21:10:28;;;;;;;1.88;0.75;;;13.10;99.90;;;;;;6304298;28;20048;-91
2024/01/23 21:13:29;;;;;;;2.10;0.75;;;13.10;99.90;;;;;;6317699;28;20059;-93
2024/01/23 21:16:45;;;;;;;3.05;0.85;;;13.20;99.90;;;;;;6311264;28;20058;-91
2024/01/23 21:19:47;;;;;;;3.03;0.80;;;13.20;99.90;;;;;;6314425;28;20507;-92
2024/01/23 21:22:49;;;;;;;3.75;0.80;;;13.20;99.90;;;;;;6311494;28;20471;-91
2024/01/23 21:25:51;;;;;;;2.22;0.70;;;13.20;99.90;;;;;;6302535;28;20052;-91
2024/01/23 21:28:53;;;;;;;3.00;0.90;;;13.10;99.90;;;;;;6305775;28;20049;-92
2024/01/23 21:31:56;;;;;;;4.85;1.48;;;13.10;99.90;;;;;;6306979;28;20052;-94
2024/01/23 21:34:58;;;;;;;3.05;0.80;;;13.20;99.90;;;;;;6301659;28;20182;-93
2024/01/23 21:38:03;;;;;;;1.80;0.70;;;13.10;99.90;;;;;;6305270;28;20515;-90
2024/01/23 21:41:05;;;;;;;1.75;0.60;;;13.10;99.90;;;;;;6302361;28;20056;-91
2024/01/23 21:44:07;;;;;;;3.70;0.80;;;13.10;99.90;;;;;;6303595;28;20052;-90
2024/01/23 21:47:09;;;;;;;2.78;0.73;;;13.10;99.90;;;;;;6323708;28;20052;-88
2024/01/23 21:50:10;;;;;;;1.85;0.60;;;13.10;99.90;;;;;;6296947;28;20056;-89
2024/01/23 21:53:12;;;;;;;2.20;0.65;;;13.30;99.90;;;;;;6303781;28;20064;-90
2024/01/23 21:56:14;;;;;;;3.10;0.55;;;13.20;99.90;;;;;;6326423;28;20063;-89
2024/01/23 21:59:16;;;;;;;2.47;0.70;;;13.50;99.90;;;;;;6301646;28;20082;-87
2024/01/23 22:02:18;;;;;;;2.92;0.63;;;13.20;99.90;;;;;;6329032;28;20079;-92
2024/01/23 22:05:20;;;;;;;3.17;0.63;;;13.20;99.90;;;;;;6305506;28;20044;-85
2024/01/23 22:08:22;;;;;;;2.92;0.77;;;13.20;99.90;;;;;;6302633;28;20396;-92
2024/01/23 22:11:25;;;;;;;2.03;0.70;;;13.30;99.90;;;;;;6332490;28;20064;-87
2024/01/23 22:14:27;;;;;;;2.28;0.70;;;13.20;99.90;;;;;;6302454;28;20044;-88
2024/01/23 22:17:29;;;;;;;2.35;0.70;;;13.20;99.90;;;;;;6315809;28;20135;-91
2024/01/23 22:20:31;;;;;;;3.35;0.90;;;13.30;99.90;;;;;;6308193;28;20533;-89
2024/01/23 22:23:32;;;;;;;7.28;0.95;;;13.30;99.90;;;;;;6325403;28;20052;-89
2024/01/23 22:26:34;;;;;;;3.47;0.80;;;13.30;99.90;;;;;;6298875;28;20059;-90
2024/01/23 22:29:37;;;;;;;1.55;0.68;;;13.20;99.90;;;;;;6303388;28;20052;-90
2024/01/23 22:32:39;;;;;;;3.75;1.00;;;13.20;99.90;;;;;;6300590;28;20479;-88
2024/01/23 22:35:41;;;;;;;2.47;0.70;;;13.30;99.90;;;;;;6322974;28;20537;-88
2024/01/23 22:38:45;;;;;;;2.65;0.65;;;13.20;99.90;;;;;;6297293;28;20056;-87
2024/01/23 22:41:47;;;;;;;3.15;0.85;;;;;;;;;;6321276;28;20052;-92
2024/01/23 22:44:49;;;;;;;4.13;1.10;;;13.20;99.90;;;;;;6293891;28;20139;-90
2024/01/23 22:47:51;;;;;;;3.90;0.93;;;13.20;99.90;;;;;;6326314;28;20087;-91
2024/01/23 22:50:53;;;;;;;2.88;0.75;;;13.20;99.90;;;;;;6301937;28;20129;-84
2024/01/23 22:53:54;;;;;;;3.20;0.70;;;13.20;99.90;;;;;;6312644;28;20052;-87
2024/01/23 22:56:56;;;;;;;4.18;0.80;;;13.20;99.90;;;;;;6323991;28;20047;-91
2024/01/23 22:59:58;;;;;;;3.47;0.80;;;13.20;99.90;;;;;;6297543;28;20059;-86
2024/01/23 23:03:00;;;;;;;4.15;0.85;;;13.30;99.90;;;;;;6324655;28;20044;-90
2024/01/23 23:06:02;;;;;;;5.00;0.93;;;13.30;99.90;;;;;;6299272;28;20055;-90
2024/01/23 23:09:06;;;;;;;3.05;0.80;;;13.30;99.90;;;;;;6322004;28;20052;-87
2024/01/23 23:12:09;;;;;;;4.05;1.17;;;13.30;99.90;;;;;;6298540;28;20052;-87
2024/01/23 23:15:12;;;;;;;8.50;1.10;;;13.20;99.90;;;;;;6317894;28;20479;-87
2024/01/23 23:18:14;;;;;;;3.72;0.88;;;13.20;99.90;;;;;;6297932;28;20455;-87
2024/01/23 23:21:16;;;;;;;4.18;0.82;;;13.10;99.90;;;;;;6303777;28;20063;-86
2024/01/23 23:24:17;;;;;;;3.15;0.98;;;13.00;99.90;;;;;;6322487;28;20098;-87
2024/01/23 23:27:19;;;;;;;3.95;0.95;;;13.00;99.90;;;;;;6296016;28;20075;-92
2024/01/23 23:30:21;;;;;;;3.30;0.80;;;12.90;99.90;;;;;;6295510;28;20197;-89
2024/01/23 23:33:23;;;;;;;2.63;0.80;;;12.90;99.90;;;;;;6321692;28;20047;-90
2024/01/23 23:36:25;;;;;;;5.43;1.13;;;13.00;99.90;;;;;;6300203;28;20660;-91
2024/01/23 23:39:27;;;;;;;4.30;1.10;;;13.20;99.90;;;;;;6322798;28;20206;-85
2024/01/23 23:42:29;;;;;;;6.55;1.35;;;13.20;99.90;;;;;;6318972;28;20063;-91
2024/01/23 23:45:31;;;;;;;5.15;1.30;;;13.20;99.90;;;;;;6290349;28;20099;-84
2024/01/23 23:48:32;;;;;;;3.70;0.90;;;13.20;99.90;;;;;;6284254;28;20114;-85
2024/01/23 23:51:34;;;;;;;4.65;1.10;;;13.00;99.90;;;;;;6289514;28;20060;-84
2024/01/23 23:54:36;;;;;;;6.63;1.00;;;13.00;99.90;;;;;;6299216;28;20063;-88
2024/01/23 23:57:38;;;;;;;4.80;1.05;;;13.00;99.90;;;;;;6316818;28;20052;-84
